Time;durP1;ratioP1;P1;durP2;ratioP2;P2;SDS_P1;SDS_P2;PMS_P1;PMS_P2;Temp;Humidity;BMP_temperature;BMP_pressure;BME280_temperature;BME280_humidity;BME280_pressure;Samples;Min_cycle;Max_cycle;Signal;HPM_P1;HPM_P2
2021/11/30 00:00:57;;;;;;;6.85;2.22;;;;;;;;;;4953217;28;20071;-88
2021/11/30 00:03:23;;;;;;;1.77;1.45;;;;;;;;;;4962060;28;20038;-88
2021/11/30 00:05:49;;;;;;;1.58;1.30;;;;;;;;;;4966696;28;20018;-87
2021/11/30 00:08:16;;;;;;;2.70;1.65;;;;;;;;;;4952085;28;20051;-88
2021/11/30 00:10:48;;;;;;;2.42;1.65;;;;;;;;;;4962161;28;20099;-87
2021/11/30 00:13:18;;;;;;;2.30;1.20;;;;;;;;;;4968155;28;20019;-88
2021/11/30 00:15:45;;;;;;;3.85;1.83;;;;;;;;;;4967071;28;20034;-88
2021/11/30 00:18:12;;;;;;;4.75;1.95;;;;;;;;;;4968160;28;20039;-89
2021/11/30 00:20:38;;;;;;;4.22;1.95;;;;;;;;;;4969773;28;20118;-87
2021/11/30 00:23:05;;;;;;;4.95;2.72;;;4.00;78.70;;;;;;4966533;28;20042;-88
2021/11/30 00:25:31;;;;;;;11.40;3.22;;;;;;;;;;4964501;28;20068;-88
2021/11/30 00:27:57;;;;;;;4.43;2.10;;;;;;;;;;4951825;28;20046;-87
2021/11/30 00:30:23;;;;;;;5.18;2.38;;;;;;;;;;4969135;28;20030;-87
2021/11/30 00:32:50;;;;;;;4.05;2.05;;;;;;;;;;4968155;28;20042;-87
2021/11/30 00:35:16;;;;;;;2.97;1.63;;;;;;;;;;4964197;28;20027;-88
2021/11/30 00:37:42;;;;;;;2.65;1.75;;;;;;;;;;4973750;28;20288;-90
2021/11/30 00:40:09;;;;;;;4.35;1.90;;;;;;;;;;4972155;28;20113;-87
2021/11/30 00:42:36;;;;;;;5.80;2.00;;;;;;;;;;4972496;28;20031;-87
2021/11/30 00:45:04;;;;;;;4.38;2.22;;;;;;;;;;4970452;28;20133;-88
2021/11/30 00:47:31;;;;;;;1.42;1.33;;;;;;;;;;4972746;28;20026;-87
2021/11/30 00:49:57;;;;;;;5.63;2.28;;;;;;;;;;4973248;28;20041;-88
2021/11/30 00:52:23;;;;;;;2.35;2.00;;;;;;;;;;4970774;28;20755;-88
2021/11/30 00:54:50;;;;;;;3.20;1.70;;;;;;;;;;4968685;28;20031;-86
2021/11/30 00:57:17;;;;;;;1.85;1.75;;;4.30;74.30;;;;;;4978372;28;20126;-87
2021/11/30 00:59:44;;;;;;;1.38;1.27;;;;;;;;;;4970201;28;20035;-88
2021/11/30 01:02:09;;;;;;;2.70;1.25;;;;;;;;;;4977316;28;20085;-88
2021/11/30 01:04:36;;;;;;;2.13;1.63;;;;;;;;;;4968749;28;20035;-88
2021/11/30 01:07:02;;;;;;;3.88;2.08;;;3.90;75.80;;;;;;4972301;28;20496;-88
2021/11/30 01:09:28;;;;;;;2.42;2.00;;;;;;;;;;4967939;28;20046;-87
2021/11/30 01:11:54;;;;;;;3.88;2.00;;;;;;;;;;4954767;28;20027;-89
2021/11/30 01:14:21;;;;;;;4.05;2.25;;;;;;;;;;4969618;28;20041;-91
2021/11/30 01:16:47;;;;;;;2.42;1.88;;;;;;;;;;4970984;28;20062;-88
2021/11/30 01:19:13;;;;;;;2.00;1.55;;;;;;;;;;4972453;28;20154;-88
2021/11/30 01:21:39;;;;;;;2.42;1.27;;;;;;;;;;4972128;28;20510;-87
2021/11/30 01:24:06;;;;;;;2.13;1.55;;;4.10;76.50;;;;;;4960071;28;20027;-88
2021/11/30 01:26:32;;;;;;;1.70;1.25;;;;;;;;;;4972208;28;20110;-88
2021/11/30 01:28:59;;;;;;;3.47;1.85;;;;;;;;;;4970951;28;20504;-87
2021/11/30 01:31:25;;;;;;;2.67;1.50;;;;;;;;;;4970396;28;20034;-89
2021/11/30 01:33:51;;;;;;;5.97;2.30;;;;;;;;;;4970553;28;20042;-87
2021/11/30 01:36:18;;;;;;;3.17;2.33;;;;;;;;;;4954833;28;20496;-88
2021/11/30 01:38:44;;;;;;;7.97;2.85;;;;;;;;;;4971955;28;20022;-89
2021/11/30 01:41:12;;;;;;;3.10;1.88;;;;;;;;;;4954200;28;20030;-87
2021/11/30 01:43:41;;;;;;;6.13;2.90;;;;;;;;;;4969665;28;20595;-87
2021/11/30 01:51:21;;;;;;;3.13;1.63;;;;;;;;;;4971488;28;20081;-88
2021/11/30 01:53:47;;;;;;;2.60;1.85;;;;;;;;;;4969545;28;20046;-87
2021/11/30 01:56:13;;;;;;;2.88;2.05;;;;;;;;;;4960854;28;20034;-88
2021/11/30 01:58:39;;;;;;;2.70;1.77;;;;;;;;;;4969703;28;20039;-88
2021/11/30 02:01:06;;;;;;;4.03;1.85;;;;;;;;;;4970744;28;20080;-87
2021/11/30 02:03:32;;;;;;;2.75;1.73;;;;;;;;;;4948450;28;20038;-88
2021/11/30 02:05:58;;;;;;;3.05;2.83;;;;;;;;;;4966944;28;20042;-87
2021/11/30 02:08:24;;;;;;;2.30;2.10;;;;;;;;;;4959902;28;20078;-87
2021/11/30 02:10:54;;;;;;;3.42;2.22;;;;;;;;;;4972042;28;20029;-88
2021/11/30 02:13:20;;;;;;;2.60;2.40;;;;;;;;;;4961882;28;20179;-89
2021/11/30 02:15:49;;;;;;;4.07;2.45;;;;;;;;;;4964013;28;20030;-89
2021/11/30 02:18:22;;;;;;;4.07;1.67;;;;;;;;;;4970142;28;20023;-89
2021/11/30 02:20:48;;;;;;;4.80;2.70;;;;;;;;;;4959862;28;20030;-88
2021/11/30 02:23:24;;;;;;;10.13;1.77;;;;;;;;;;4968115;28;20085;-87
2021/11/30 02:25:50;;;;;;;5.10;2.08;;;;;;;;;;4963032;28;20114;-87
2021/11/30 02:28:16;;;;;;;6.97;1.85;;;;;;;;;;4971168;28;20103;-88
2021/11/30 02:30:42;;;;;;;4.60;2.13;;;;;;;;;;4968805;28;20037;-88
2021/11/30 02:33:08;;;;;;;4.78;2.08;;;;;;;;;;4955771;28;20014;-88
2021/11/30 02:35:34;;;;;;;11.50;1.90;;;;;;;;;;4951161;28;20031;-87
2021/11/30 02:38:07;;;;;;;5.80;2.92;;;;;;;;;;4957838;28;20133;-88
2021/11/30 02:40:33;;;;;;;3.05;2.67;;;;;;;;;;4967856;28;20042;-88
2021/11/30 02:42:59;;;;;;;2.15;1.73;;;;;;;;;;4951881;28;20034;-87
2021/11/30 02:45:25;;;;;;;3.55;1.92;;;;;;;;;;4967824;28;20050;-88
2021/11/30 02:47:51;;;;;;;2.25;2.05;;;;;;;;;;4970704;28;20035;-87
2021/11/30 02:50:17;;;;;;;3.92;2.90;;;;;;;;;;4969340;28;20034;-87
2021/11/30 02:52:43;;;;;;;5.85;2.55;;;;;;;;;;4967941;28;20062;-87
2021/11/30 02:55:09;;;;;;;2.78;2.10;;;;;;;;;;4967997;28;20062;-88
2021/11/30 02:57:35;;;;;;;3.55;2.17;;;;;;;;;;4957877;28;20070;-88
2021/11/30 03:00:02;;;;;;;4.35;2.33;;;;;;;;;;4968451;28;20030;-88
2021/11/30 03:02:29;;;;;;;3.45;2.20;;;;;;;;;;4969317;28;20727;-88
2021/11/30 03:04:58;;;;;;;4.55;2.80;;;3.90;77.90;;;;;;4965433;28;20037;-87
2021/11/30 03:07:38;;;;;;;7.15;2.38;;;;;;;;;;4972086;28;20035;-88
2021/11/30 03:10:05;;;;;;;6.20;2.97;;;;;;;;;;4966891;28;20027;-87
2021/11/30 03:12:30;;;;;;;6.47;1.92;;;;;;;;;;4970158;28;20027;-88
2021/11/30 03:14:57;;;;;;;3.90;2.65;;;;;;;;;;4965791;28;20050;-88
2021/11/30 03:17:23;;;;;;;3.50;2.13;;;;;;;;;;4970559;28;20030;-86
2021/11/30 03:19:49;;;;;;;2.50;2.13;;;;;;;;;;4967911;28;20046;-88
2021/11/30 03:22:15;;;;;;;5.93;2.97;;;;;;;;;;4970016;28;20042;-88
2021/11/30 03:24:41;;;;;;;4.20;2.50;;;;;;;;;;4965956;28;20045;-86
2021/11/30 03:27:07;;;;;;;4.28;2.47;;;;;;;;;;4968647;28;20031;-88
2021/11/30 03:29:33;;;;;;;5.32;1.95;;;;;;;;;;4969155;28;20126;-88
2021/11/30 03:34:31;;;;;;;2.95;2.40;;;;;;;;;;4966142;28;20038;-88
2021/11/30 03:36:57;;;;;;;3.60;2.67;;;;;;;;;;4969507;28;20027;-88
2021/11/30 03:39:25;;;;;;;2.10;1.48;;;;;;;;;;4957506;28;20412;-87
2021/11/30 03:41:52;;;;;;;5.00;2.25;;;;;;;;;;4966859;28;20027;-86
2021/11/30 03:44:19;;;;;;;4.47;1.88;;;;;;;;;;4965809;28;20423;-88
2021/11/30 03:46:45;;;;;;;5.43;2.67;;;;;;;;;;4968776;28;20034;-87
2021/11/30 03:49:12;;;;;;;3.65;2.50;;;;;;;;;;4968271;28;20042;-85
2021/11/30 03:51:38;;;;;;;1.55;1.35;;;;;;;;;;4965654;28;20030;-87
2021/11/30 03:54:05;;;;;;;4.65;1.67;;;3.70;78.60;;;;;;4966376;28;20088;-87
2021/11/30 03:56:31;;;;;;;3.15;1.63;;;;;;;;;;4967069;28;20062;-87
2021/11/30 03:58:57;;;;;;;4.60;2.53;;;;;;;;;;4968334;28;20039;-86
2021/11/30 04:01:23;;;;;;;3.28;2.17;;;;;;;;;;4953075;28;20034;-86
2021/11/30 04:03:49;;;;;;;2.58;1.73;;;;;;;;;;4966294;28;20026;-87
2021/11/30 04:06:15;;;;;;;3.83;2.50;;;;;;;;;;4966978;28;20463;-87
2021/11/30 04:08:41;;;;;;;2.30;2.00;;;;;;;;;;4968047;28;20101;-87
2021/11/30 04:11:08;;;;;;;3.28;2.17;;;;;;;;;;4950426;28;20113;-87
2021/11/30 04:13:34;;;;;;;2.60;1.85;;;;;;;;;;4966811;28;20372;-87
2021/11/30 04:16:00;;;;;;;4.20;3.05;;;;;;;;;;4966890;28;20022;-87
2021/11/30 04:18:26;;;;;;;4.45;2.40;;;;;;;;;;4968351;28;20031;-87
2021/11/30 04:20:53;;;;;;;5.55;2.78;;;;;;;;;;4968025;28;20033;-87
2021/11/30 04:23:19;;;;;;;4.10;1.88;;;;;;;;;;4966478;28;20041;-87
2021/11/30 04:25:45;;;;;;;2.95;2.15;;;;;;;;;;4966088;28;20023;-86
2021/11/30 04:28:11;;;;;;;1.85;1.33;;;;;;;;;;4971251;28;20101;-86
2021/11/30 04:30:37;;;;;;;4.03;2.15;;;;;;;;;;4967839;28;20039;-86
2021/11/30 04:33:03;;;;;;;3.70;2.53;;;;;;;;;;4953406;28;20022;-86
2021/11/30 04:35:29;;;;;;;3.15;1.63;;;;;;;;;;4949983;28;20151;-87
2021/11/30 04:37:55;;;;;;;1.00;1.00;;;;;;;;;;4965609;28;20110;-86
2021/11/30 04:40:21;;;;;;;2.78;1.83;;;;;;;;;;4966762;28;20034;-86
2021/11/30 04:42:48;;;;;;;1.43;1.33;;;;;;;;;;4966760;28;20023;-86
2021/11/30 04:45:50;;;;;;;3.08;1.77;;;;;;;;;;4964488;28;20298;-85
2021/11/30 04:48:04;;;;;;;4.28;2.22;;;;;;;;;;4965970;28;20047;-86
2021/11/30 04:50:35;;;;;;;3.03;2.22;;;;;;;;;;4950220;28;20714;-87
2021/11/30 04:53:01;;;;;;;1.05;0.98;;;;;;;;;;4966441;28;20567;-86
2021/11/30 04:55:30;;;;;;;8.85;1.20;;;;;;;;;;4965723;28;20102;-85
2021/11/30 04:57:57;;;;;;;8.82;1.38;;;;;;;;;;4967827;28;20157;-86
2021/11/30 05:00:24;;;;;;;3.60;1.23;;;;;;;;;;4950221;28;20035;-85
2021/11/30 05:02:50;;;;;;;5.72;2.13;;;;;;;;;;4965157;28;20066;-86
2021/11/30 05:05:16;;;;;;;3.80;1.95;;;;;;;;;;4973827;28;20062;-86
2021/11/30 05:07:43;;;;;;;0.65;0.65;;;;;;;;;;4973324;28;20085;-86
2021/11/30 05:10:09;;;;;;;2.30;1.38;;;;;;;;;;4967991;28;20031;-86
2021/11/30 05:12:35;;;;;;;4.20;1.85;;;;;;;;;;4966589;28;20027;-88
2021/11/30 05:15:02;;;;;;;4.95;1.58;;;;;;;;;;4963626;28;20563;-86
2021/11/30 05:17:28;;;;;;;1.38;1.00;;;;;;;;;;4967606;28;20081;-87
2021/11/30 05:19:54;;;;;;;1.05;0.93;;;;;;;;;;4967313;28;20039;-86
2021/11/30 05:22:20;;;;;;;2.40;1.00;;;;;;;;;;4970124;28;20030;-87
2021/11/30 05:24:46;;;;;;;1.55;1.20;;;;;;;;;;4970482;28;20638;-85
2021/11/30 05:27:12;;;;;;;2.45;0.90;;;;;;;;;;4970467;28;20034;-86
2021/11/30 05:29:38;;;;;;;1.42;1.25;;;;;;;;;;4954836;28;20154;-87
2021/11/30 05:32:04;;;;;;;1.77;1.58;;;;;;;;;;4950917;28;20543;-86
2021/11/30 05:34:30;;;;;;;0.90;0.90;;;;;;;;;;4965127;28;20031;-87
2021/11/30 05:36:56;;;;;;;1.17;0.82;;;;;;;;;;4971326;28;20411;-87
2021/11/30 05:39:22;;;;;;;0.75;0.75;;;;;;;;;;4953866;28;20065;-87
2021/11/30 05:41:48;;;;;;;1.23;0.98;;;;;;;;;;4970870;28;20034;-87
2021/11/30 05:44:14;;;;;;;3.53;1.75;;;;;;;;;;4967870;28;20055;-88
2021/11/30 05:46:41;;;;;;;2.45;1.00;;;;;;;;;;4970408;28;20027;-87
2021/11/30 05:49:07;;;;;;;1.65;1.55;;;;;;;;;;4970838;28;20555;-87
2021/11/30 05:51:34;;;;;;;1.30;1.02;;;;;;;;;;4970108;28;20038;-86
2021/11/30 05:54:00;;;;;;;;;;;;;;;;;;4968321;28;20043;-86
2021/11/30 05:56:26;;;;;;;1.42;1.33;;;;;;;;;;4958742;28;19921;-86
2021/11/30 05:58:52;;;;;;;6.70;2.67;;;;;;;;;;4971017;28;20051;-87
2021/11/30 06:01:33;;;;;;;3.65;2.50;;;;;;;;;;4969952;28;20035;-86
2021/11/30 06:04:00;;;;;;;3.00;2.00;;;;;;;;;;4955758;28;20069;-86
2021/11/30 06:06:32;;;;;;;3.03;1.80;;;2.20;75.80;;;;;;4968782;28;20043;-87
2021/11/30 06:08:58;;;;;;;3.95;1.50;;;;;;;;;;4969290;28;20039;-86
2021/11/30 06:11:25;;;;;;;1.48;1.38;;;;;;;;;;4973685;28;20027;-87
2021/11/30 06:13:51;;;;;;;1.55;1.42;;;;;;;;;;4967591;28;20027;-87
2021/11/30 06:16:17;;;;;;;1.33;0.95;;;;;;;;;;4969972;28;20019;-87
2021/11/30 06:18:43;;;;;;;2.20;1.27;;;;;;;;;;4980273;28;20058;-86
2021/11/30 06:21:13;;;;;;;1.17;0.93;;;;;;;;;;4976607;28;20109;-89
2021/11/30 06:23:40;;;;;;;1.17;0.73;;;;;;;;;;4964740;28;20110;-89
2021/11/30 06:26:09;;;;;;;0.67;0.67;;;;;;;;;;4973465;28;20030;-88
2021/11/30 06:28:36;;;;;;;2.58;1.58;;;;;;;;;;4969203;28;20042;-88
2021/11/30 06:31:02;;;;;;;1.85;1.48;;;;;;;;;;4974916;28;20028;-88
2021/11/30 06:33:28;;;;;;;4.07;1.63;;;;;;;;;;4969277;28;20036;-89
2021/11/30 06:35:54;;;;;;;2.67;2.47;;;;;;;;;;4971308;28;20023;-88
2021/11/30 06:38:20;;;;;;;3.85;2.60;;;;;;;;;;4971230;28;20562;-88
2021/11/30 06:40:46;;;;;;;4.28;1.80;;;;;;;;;;4976139;28;20090;-87
2021/11/30 06:43:12;;;;;;;6.53;3.60;;;;;;;;;;4972531;28;20050;-88
2021/11/30 06:45:38;;;;;;;9.73;5.10;;;;;;;;;;4975958;28;20042;-88
2021/11/30 06:48:04;;;;;;;9.45;3.63;;;;;;;;;;4948580;28;20117;-87
2021/11/30 06:50:30;;;;;;;7.40;4.25;;;;;;;;;;4980200;28;20096;-89
2021/11/30 06:52:56;;;;;;;3.63;2.28;;;;;;;;;;4971886;28;20066;-91
2021/11/30 06:55:22;;;;;;;4.20;2.90;;;;;;;;;;4973451;28;20058;-90
2021/11/30 06:57:48;;;;;;;5.60;3.10;;;;;;;;;;4956774;28;20067;-90
2021/11/30 07:00:18;;;;;;;3.45;3.00;;;;;;;;;;4973965;28;20038;-90
2021/11/30 07:02:45;;;;;;;6.63;3.13;;;;;;;;;;4973304;28;20093;-91
2021/11/30 07:05:20;;;;;;;7.07;2.97;;;;;;;;;;4973367;28;20042;-91
2021/11/30 07:10:41;;;;;;;9.13;4.25;;;;;;;;;;4973685;28;20530;-90
2021/11/30 07:15:40;;;;;;;4.63;3.22;;;;;;;;;;4972518;28;20129;-90
2021/11/30 07:18:06;;;;;;;8.23;4.15;;;;;;;;;;4952662;29;20502;-86
2021/11/30 07:20:32;;;;;;;6.50;3.10;;;;;;;;;;4963115;28;20039;-88
2021/11/30 07:22:58;;;;;;;4.45;3.17;;;;;;;;;;4971121;28;20050;-89
2021/11/30 07:25:27;;;;;;;10.20;4.28;;;;;;;;;;4973127;28;20051;-89
2021/11/30 07:27:53;;;;;;;4.15;2.97;;;;;;;;;;4971926;28;20034;-90
2021/11/30 07:30:21;;;;;;;4.68;2.20;;;;;;;;;;4981595;28;20105;-91
2021/11/30 07:32:47;;;;;;;12.63;5.38;;;;;;;;;;4978085;28;20114;-87
2021/11/30 07:35:14;;;;;;;14.02;3.83;;;;;;;;;;4977780;28;20479;-86
2021/11/30 07:37:40;;;;;;;10.83;5.10;;;;;;;;;;4961293;28;20439;-87
2021/11/30 07:40:06;;;;;;;4.68;2.70;;;;;;;;;;4970498;28;20038;-87
2021/11/30 07:42:33;;;;;;;15.13;5.25;;;;;;;;;;4954992;28;20035;-85
2021/11/30 07:44:59;;;;;;;11.18;4.78;;;;;;;;;;4975595;28;20422;-86
2021/11/30 07:47:26;;;;;;;8.80;5.45;;;;;;;;;;4970985;28;20023;-86
2021/11/30 07:49:52;;;;;;;6.60;3.72;;;;;;;;;;4954718;28;20074;-85
2021/11/30 07:52:18;;;;;;;6.28;4.30;;;;;;;;;;4968828;28;20114;-86
2021/11/30 07:54:45;;;;;;;9.48;4.85;;;;;;;;;;4967296;28;20045;-85
2021/11/30 07:57:12;;;;;;;7.88;4.07;;;;;;;;;;4968042;28;20054;-86
2021/11/30 07:59:38;;;;;;;13.85;5.18;;;;;;;;;;4974926;28;20088;-85
2021/11/30 08:02:04;;;;;;;8.07;4.80;;;;;;;;;;4960747;28;20054;-85
2021/11/30 08:04:31;;;;;;;3.05;2.75;;;;;;;;;;4967515;28;29010;-86
2021/11/30 08:06:57;;;;;;;8.70;3.55;;;;;;;;;;4953304;28;20117;-86
2021/11/30 08:09:23;;;;;;;8.55;5.15;;;;;;;;;;4965546;28;20043;-85
2021/11/30 08:11:50;;;;;;;10.13;4.80;;;;;;;;;;4952334;28;20079;-85
2021/11/30 08:14:16;;;;;;;7.05;4.00;;;;;;;;;;4962715;28;20031;-91
2021/11/30 08:16:43;;;;;;;5.03;4.07;;;;;;;;;;4966896;28;20838;-89
2021/11/30 08:19:09;;;;;;;5.38;2.33;;;;;;;;;;4970116;28;20512;-91
2021/11/30 08:21:35;;;;;;;11.23;3.90;;;;;;;;;;4969533;28;20066;-89
2021/11/30 08:24:02;;;;;;;9.15;4.35;;;;;;;;;;4973372;28;20030;-90
2021/11/30 08:26:28;;;;;;;6.07;4.35;;;;;;;;;;4956489;28;20058;-90
2021/11/30 08:28:54;;;;;;;7.25;4.68;;;;;;;;;;4961513;28;20030;-90
2021/11/30 08:31:20;;;;;;;9.75;4.13;;;;;;;;;;4972495;28;20031;-86
2021/11/30 08:33:46;;;;;;;9.70;4.85;;;;;;;;;;4969459;28;20057;-90
2021/11/30 08:36:12;;;;;;;4.57;4.03;;;;;;;;;;4966116;28;20389;-91
2021/11/30 08:38:39;;;;;;;7.95;4.22;;;;;;;;;;4959455;28;20505;-90
2021/11/30 08:41:05;;;;;;;11.90;5.13;;;;;;;;;;4956191;28;20027;-94
2021/11/30 08:43:31;;;;;;;19.27;6.43;;;;;;;;;;4956564;28;20047;-95
2021/11/30 08:45:57;;;;;;;15.63;6.85;;;;;;;;;;4973306;28;20035;-87
2021/11/30 08:48:24;;;;;;;13.35;6.32;;;6.20;60.10;;;;;;4970938;28;20034;-92
2021/11/30 08:50:51;;;;;;;9.02;3.70;;;;;;;;;;4972132;28;20042;-90
2021/11/30 08:53:18;;;;;;;10.03;5.03;;;;;;;;;;4971249;28;20031;-93
2021/11/30 08:55:44;;;;;;;12.30;5.22;;;;;;;;;;4968395;28;20381;-91
2021/11/30 08:58:10;;;;;;;12.93;4.13;;;;;;;;;;4974492;28;20129;-88
2021/11/30 09:00:37;;;;;;;8.23;5.80;;;6.20;58.30;;;;;;4975000;28;20034;-88
2021/11/30 09:03:03;;;;;;;8.60;4.40;;;;;;;;;;4971824;28;20030;-88
2021/11/30 09:05:30;;;;;;;10.45;5.53;;;;;;;;;;4973128;28;20038;-87
2021/11/30 09:07:56;;;;;;;9.38;4.18;;;;;;;;;;4971858;28;20158;-90
2021/11/30 09:10:22;;;;;;;13.83;4.03;;;;;;;;;;4974554;28;20043;-92
2021/11/30 09:12:49;;;;;;;17.00;4.47;;;;;;;;;;4975281;28;20476;-92
2021/11/30 09:15:16;;;;;;;10.75;5.75;;;;;;;;;;4970462;28;20078;-91
2021/11/30 09:17:42;;;;;;;4.53;3.42;;;;;;;;;;4969046;28;20031;-92
2021/11/30 09:20:09;;;;;;;6.30;4.47;;;;;;;;;;4969652;28;20481;-92
2021/11/30 09:22:36;;;;;;;6.72;4.40;;;;;;;;;;4958892;28;20027;-92
2021/11/30 09:25:04;;;;;;;12.05;5.22;;;;;;;;;;4975516;28;20031;-91
2021/11/30 09:27:30;;;;;;;9.07;5.07;;;;;;;;;;4975837;28;20030;-93
2021/11/30 09:29:56;;;;;;;7.88;6.05;;;;;;;;;;4972277;28;20053;-92
2021/11/30 09:32:29;;;;;;;9.48;5.60;;;;;;;;;;4966719;28;20024;-93
2021/11/30 09:34:56;;;;;;;9.63;5.82;;;;;;;;;;4963071;28;20030;-93
2021/11/30 09:37:22;;;;;;;10.60;4.63;;;;;;;;;;4964654;28;20078;-93
2021/11/30 09:39:48;;;;;;;10.63;5.88;;;;;;;;;;4969310;28;20023;-92
2021/11/30 09:42:17;;;;;;;11.63;5.30;;;;;;;;;;4974888;28;20033;-93
2021/11/30 09:44:45;;;;;;;13.05;4.43;;;;;;;;;;4980663;28;20062;-92
2021/11/30 09:47:11;;;;;;;4.97;3.42;;;;;;;;;;4970881;28;20035;-92
2021/11/30 09:49:38;;;;;;;12.52;4.32;;;;;;;;;;4980817;28;20050;-93
2021/11/30 09:52:04;;;;;;;7.00;3.60;;;;;;;;;;4981926;28;20019;-93
2021/11/30 09:54:31;;;;;;;7.03;4.43;;;;;;;;;;4988341;28;20554;-92
2021/11/30 09:56:57;;;;;;;6.50;3.60;;;;;;;;;;4987150;28;20403;-93
2021/11/30 09:59:23;;;;;;;5.32;3.35;;;;;;;;;;4960096;28;20039;-93
2021/11/30 10:01:49;;;;;;;8.20;4.18;;;;;;;;;;4984592;28;20058;-93
2021/11/30 10:04:15;;;;;;;6.07;2.80;;;;;;;;;;4972201;28;20041;-93
2021/11/30 10:06:41;;;;;;;6.03;3.38;;;;;;;;;;4989106;28;20026;-93
2021/11/30 10:09:23;;;;;;;7.85;4.28;;;;;;;;;;4959862;28;20037;-93
2021/11/30 10:12:01;;;;;;;3.45;2.53;;;9.40;52.80;;;;;;4963076;28;20032;-93
2021/11/30 10:14:34;;;;;;;7.68;2.45;;;9.70;52.60;;;;;;4969338;28;20598;-93
2021/11/30 10:17:29;;;;;;;7.32;3.88;;;10.10;50.50;;;;;;4975001;28;20034;-90
2021/11/30 10:19:55;;;;;;;6.18;3.20;;;;;;;;;;4958551;28;20512;-87
2021/11/30 10:22:51;;;;;;;13.32;4.72;;;9.30;50.90;;;;;;4970824;28;20023;-89
2021/11/30 10:25:25;;;;;;;8.20;4.47;;;;;;;;;;4956170;28;20507;-91
2021/11/30 10:27:52;;;;;;;10.13;4.25;;;;;;;;;;4971958;28;20099;-92
2021/11/30 10:30:20;;;;;;;;;;;8.60;54.20;;;;;;4982969;28;20077;-93
2021/11/30 10:32:47;;;;;;;2.90;2.28;;;;;;;;;;4979262;28;19910;-93
2021/11/30 10:35:15;;;;;;;4.25;2.95;;;8.50;54.50;;;;;;4974519;28;20046;-92
2021/11/30 10:37:43;;;;;;;5.85;3.20;;;8.90;54.20;;;;;;4959390;28;20027;-93
2021/11/30 10:40:15;;;;;;;8.38;4.03;;;9.20;54.70;;;;;;4973675;28;20065;-93
2021/11/30 10:43:07;;;;;;;6.28;3.20;;;9.10;54.00;;;;;;4976925;28;20113;-93
2021/11/30 10:45:37;;;;;;;5.97;4.72;;;9.20;53.70;;;;;;4977537;28;20105;-92
2021/11/30 10:48:09;;;;;;;6.72;3.00;;;8.70;55.00;;;;;;4953419;28;20087;-94
2021/11/30 10:50:44;;;;;;;5.72;2.65;;;9.20;54.40;;;;;;4946723;28;20493;-93
2021/11/30 10:53:18;;;;;;;5.75;3.15;;;9.50;54.00;;;;;;4958233;28;20090;-93
2021/11/30 10:55:50;;;;;;;6.55;4.15;;;9.80;52.60;;;;;;4959678;28;20049;-92
2021/11/30 10:58:18;;;;;;;7.30;3.33;;;10.10;52.60;;;;;;4974385;28;20078;-92
2021/11/30 11:00:44;;;;;;;6.28;2.92;;;;;;;;;;4958209;28;20055;-93
2021/11/30 11:03:17;;;;;;;5.95;2.83;;;10.30;53.50;;;;;;4972365;28;20045;-93
2021/11/30 11:05:43;;;;;;;5.07;3.70;;;;;;;;;;4974875;28;20031;-92
2021/11/30 11:08:10;;;;;;;11.95;4.13;;;;;;;;;;4967886;28;20147;-92
2021/11/30 11:10:42;;;;;;;6.70;3.15;;;9.90;52.50;;;;;;4973050;28;20045;-90
2021/11/30 11:13:27;;;;;;;6.20;3.83;;;9.90;74.40;;;;;;4973674;28;20492;-93
2021/11/30 11:15:58;;;;;;;7.78;3.83;;;;;;;;;;4954851;29;20042;-91
2021/11/30 11:18:28;;;;;;;6.68;3.80;;;;;;;;;;4971345;28;20119;-92
2021/11/30 11:21:09;;;;;;;4.95;2.85;;;;;;;;;;4966989;28;20097;-91
2021/11/30 11:23:36;;;;;;;15.15;4.22;;;;;;;;;;4961663;28;20035;-91
2021/11/30 11:26:20;;;;;;;5.70;2.67;;;9.20;55.00;;;;;;4967584;28;20501;-93
2021/11/30 11:28:47;;;;;;;11.32;3.25;;;;;;;;;;4957068;28;20035;-94
2021/11/30 11:31:13;;;;;;;5.88;2.60;;;;;;;;;;4974108;28;20087;-92
2021/11/30 11:33:39;;;;;;;10.57;4.22;;;;;;;;;;4969313;28;20037;-90
2021/11/30 11:36:05;;;;;;;4.97;4.13;;;;;;;;;;4964520;28;20033;-91
2021/11/30 11:38:32;;;;;;;6.25;4.05;;;;;;;;;;4971875;28;20035;-93
2021/11/30 11:40:59;;;;;;;8.48;3.33;;;;;;;;;;4971907;28;20066;-91
2021/11/30 11:43:25;;;;;;;7.25;3.67;;;;;;;;;;4971109;28;20067;-90
2021/11/30 11:45:53;;;;;;;12.13;4.03;;;10.80;50.80;;;;;;4959082;28;20155;-89
2021/11/30 11:48:19;;;;;;;5.93;3.97;;;;;;;;;;4972611;28;20027;-89
2021/11/30 11:50:54;;;;;;;7.03;4.85;;;10.80;50.70;;;;;;4966417;28;20035;-89
2021/11/30 11:53:23;;;;;;;6.95;3.38;;;;;;;;;;4961776;28;20389;-92
2021/11/30 11:56:19;;;;;;;9.48;4.28;;;10.70;50.00;;;;;;4973231;28;20572;-90
2021/11/30 11:58:51;;;;;;;8.65;4.05;;;11.00;51.30;;;;;;4953858;28;20030;-90
2021/11/30 12:01:21;;;;;;;9.25;3.17;;;;;;;;;;4971738;28;20033;-88
2021/11/30 12:03:55;;;;;;;5.00;3.22;;;10.80;49.90;;;;;;4970893;28;20030;-90
2021/11/30 12:06:25;;;;;;;3.85;1.90;;;10.40;49.40;;;;;;4964282;28;20027;-92
2021/11/30 12:09:23;;;;;;;2.63;2.42;;;;;;;;;;4958111;28;20035;-90
2021/11/30 12:12:01;;;;;;;6.28;3.22;;;10.00;50.70;;;;;;4900010;29;20036;-88
2021/11/30 12:14:34;;;;;;;2.97;2.20;;;9.80;51.00;;;;;;4894965;29;20056;-89
2021/11/30 12:17:04;;;;;;;5.32;3.65;;;;;;;;;;4906301;29;20597;-88
2021/11/30 12:19:31;;;;;;;7.53;3.00;;;;;;;;;;4908428;29;20040;-87
2021/11/30 12:21:57;;;;;;;7.65;3.10;;;;;;;;;;4904664;29;20071;-87
2021/11/30 12:24:34;;;;;;;12.23;4.00;;;10.30;51.90;;;;;;4909811;29;20117;-87
2021/11/30 12:27:02;;;;;;;9.93;3.83;;;;;;;;;;4905337;29;20039;-87
2021/11/30 12:29:36;;;;;;;4.05;2.65;;;;;;;;;;4897851;29;20144;-88
2021/11/30 12:32:20;;;;;;;4.63;3.30;;;10.40;49.50;;;;;;4896056;29;20068;-88
2021/11/30 12:34:49;;;;;;;2.47;1.73;;;;;;;;;;4910931;29;20036;-87
2021/11/30 12:37:17;;;;;;;2.25;1.90;;;;;;;;;;4914407;29;20057;-86
2021/11/30 12:40:03;;;;;;;4.78;3.33;;;;;;;;;;4914882;29;20062;-89
2021/11/30 12:42:29;;;;;;;8.07;2.25;;;;;;;;;;4913646;29;20119;-87
2021/11/30 12:44:56;;;;;;;4.18;3.17;;;;;;;;;;4910406;29;20155;-87
2021/11/30 12:47:25;;;;;;;5.20;2.45;;;;;;;;;;4930855;28;20492;-86
2021/11/30 12:49:51;;;;;;;4.25;2.47;;;;;;;;;;4979501;28;20042;-86
2021/11/30 12:52:17;;;;;;;5.40;2.70;;;;;;;;;;4975584;28;20050;-87
2021/11/30 12:54:49;;;;;;;6.25;2.83;;;;;;;;;;4979811;28;20594;-87
2021/11/30 12:57:39;;;;;;;2.90;2.47;;;;;;;;;;4973517;28;20032;-88
2021/11/30 13:00:09;;;;;;;3.55;2.28;;;;;;;;;;4972122;28;20034;-87
2021/11/30 13:02:38;;;;;;;2.55;2.00;;;;;;;;;;4971341;28;20065;-87
2021/11/30 13:05:18;;;;;;;2.17;1.98;;;;;;;;;;4972046;28;20023;-84
2021/11/30 13:07:49;;;;;;;3.60;2.28;;;;;;;;;;4958389;28;20107;-86
2021/11/30 13:10:19;;;;;;;6.45;1.92;;;;;;;;;;4971409;28;20062;-88
2021/11/30 13:12:45;;;;;;;5.95;2.97;;;;;;;;;;4974280;28;20026;-84
2021/11/30 13:15:11;;;;;;;3.90;1.77;;;;;;;;;;4973610;28;20110;-86
2021/11/30 13:17:37;;;;;;;3.88;2.92;;;;;;;;;;4971621;28;23128;-87
2021/11/30 13:20:11;;;;;;;4.57;2.88;;;;;;;;;;4974544;28;20059;-86
2021/11/30 13:22:40;;;;;;;3.33;2.22;;;;;;;;;;4972845;28;20031;-87
2021/11/30 13:25:09;;;;;;;2.90;1.98;;;;;;;;;;4970728;28;20052;-86
2021/11/30 13:27:35;;;;;;;3.50;2.55;;;;;;;;;;4971093;28;20514;-86
2021/11/30 13:30:10;;;;;;;2.30;2.10;;;;;;;;;;4971410;28;20121;-86
2021/11/30 13:33:03;;;;;;;2.85;2.17;;;;;;;;;;4971885;28;20037;-86
2021/11/30 13:35:33;;;;;;;2.17;1.80;;;;;;;;;;4950067;28;20431;-86
2021/11/30 13:38:10;;;;;;;4.50;2.17;;;;;;;;;;4972304;28;20030;-84
2021/11/30 13:40:38;;;;;;;4.00;2.72;;;;;;;;;;4973770;28;20571;-86
2021/11/30 13:43:26;;;;;;;5.68;2.13;;;;;;;;;;4971987;28;20170;-84
2021/11/30 13:45:53;;;;;;;3.08;2.63;;;;;;;;;;4967523;28;20058;-85
2021/11/30 13:48:23;;;;;;;;;;;8.30;55.20;;;;;;4965904;28;20408;-86
2021/11/30 13:50:50;;;;;;;1.95;1.45;;;;;;;;;;4966567;28;19914;-87
2021/11/30 13:53:19;;;;;;;11.43;2.80;;;;;;;;;;4954194;28;20034;-87
2021/11/30 13:55:47;;;;;;;4.40;2.83;;;;;;;;;;4956190;28;20043;-86
2021/11/30 13:58:17;;;;;;;7.05;3.75;;;;;;;;;;4969357;28;20082;-87
2021/11/30 14:00:49;;;;;;;3.20;1.90;;;;;;;;;;4967278;28;20034;-90
2021/11/30 14:03:15;;;;;;;2.60;2.00;;;;;;;;;;4957850;28;20378;-86
2021/11/30 14:05:41;;;;;;;2.67;2.10;;;;;;;;;;4960029;28;20035;-88
2021/11/30 14:08:07;;;;;;;7.28;2.22;;;;;;;;;;4969599;28;20046;-89
2021/11/30 14:10:40;;;;;;;2.90;2.45;;;8.20;57.70;;;;;;4965398;28;20026;-88
2021/11/30 14:13:06;;;;;;;3.63;2.25;;;;;;;;;;4973533;28;20122;-88
2021/11/30 14:15:32;;;;;;;2.15;1.70;;;;;;;;;;4955231;28;20050;-90
2021/11/30 14:18:04;;;;;;;2.83;2.30;;;;;;;;;;4968894;28;20031;-88
2021/11/30 14:20:30;;;;;;;4.13;2.83;;;;;;;;;;4968806;28;20042;-88
2021/11/30 14:22:56;;;;;;;2.20;1.90;;;;;;;;;;4973820;28;20073;-91
2021/11/30 14:25:23;;;;;;;3.63;2.25;;;;;;;;;;4972585;28;20480;-90
2021/11/30 14:28:00;;;;;;;1.98;1.85;;;;;;;;;;4959725;28;20066;-87
2021/11/30 14:30:32;;;;;;;11.15;2.70;;;;;;;;;;4962512;28;20094;-90
2021/11/30 14:33:03;;;;;;;3.22;2.35;;;;;;;;;;4969172;28;20063;-85
2021/11/30 14:35:41;;;;;;;2.30;1.88;;;;;;;;;;4968139;28;20031;-86
2021/11/30 14:38:09;;;;;;;4.22;1.83;;;;;;;;;;4965768;28;20592;-88
2021/11/30 14:40:38;;;;;;;;;;;8.00;63.90;;;;;;4965243;28;20057;-88
2021/11/30 14:43:04;;;;;;;5.82;2.38;;;;;;;;;;4972151;28;20296;-87
2021/11/30 14:45:53;;;;;;;4.97;1.77;;;7.60;62.80;;;;;;4973042;28;20051;-88
2021/11/30 14:48:20;;;;;;;1.58;1.48;;;;;;;;;;4968407;28;20049;-87